sensor_id;sensor_type;location;lat;lon;timestamp;pressure;altitude;pressure_sealevel;temperature;humidity
64336;BME280;50672;53.362;-6.240;2023-01-28T00:01:18;103378.25;;;4.25;74.28
64336;BME280;50672;53.362;-6.240;2023-01-28T00:03:48;103381.53;;;4.32;74.08
64336;BME280;50672;53.362;-6.240;2023-01-28T00:06:17;103368.75;;;4.37;74.03
64336;BME280;50672;53.362;-6.240;2023-01-28T00:08:44;103373.91;;;4.41;74.22
64336;BME280;50672;53.362;-6.240;2023-01-28T00:11:12;103371.94;;;4.45;73.98
64336;BME280;50672;53.362;-6.240;2023-01-28T00:13:40;103372.75;;;4.47;73.99
64336;BME280;50672;53.362;-6.240;2023-01-28T00:16:08;103360.28;;;4.44;73.73
64336;BME280;50672;53.362;-6.240;2023-01-28T00:18:35;103358.66;;;4.40;73.75
64336;BME280;50672;53.362;-6.240;2023-01-28T00:21:05;103353.56;;;4.34;73.64
64336;BME280;50672;53.362;-6.240;2023-01-28T00:23:36;103351.13;;;4.28;73.59
64336;BME280;50672;53.362;-6.240;2023-01-28T00:26:06;103347.91;;;4.20;73.49
64336;BME280;50672;53.362;-6.240;2023-01-28T00:28:33;103348.13;;;4.15;73.51
64336;BME280;50672;53.362;-6.240;2023-01-28T00:31:11;103350.06;;;4.11;73.40
64336;BME280;50672;53.362;-6.240;2023-01-28T00:33:40;103350.16;;;4.10;73.56
64336;BME280;50672;53.362;-6.240;2023-01-28T00:36:07;103353.81;;;4.09;73.54
64336;BME280;50672;53.362;-6.240;2023-01-28T00:38:33;103356.38;;;4.12;73.54
64336;BME280;50672;53.362;-6.240;2023-01-28T00:41:15;103363.28;;;4.18;73.58
64336;BME280;50672;53.362;-6.240;2023-01-28T00:43:43;103375.47;;;4.26;73.56
64336;BME280;50672;53.362;-6.240;2023-01-28T00:46:11;103377.78;;;4.36;73.61
64336;BME280;50672;53.362;-6.240;2023-01-28T00:48:41;103369.31;;;4.43;73.61
64336;BME280;50672;53.362;-6.240;2023-01-28T00:51:10;103366.50;;;4.47;73.54
64336;BME280;50672;53.362;-6.240;2023-01-28T00:53:38;103357.44;;;4.48;73.57
64336;BME280;50672;53.362;-6.240;2023-01-28T00:56:07;103347.63;;;4.47;73.52
64336;BME280;50672;53.362;-6.240;2023-01-28T00:58:34;103337.69;;;4.47;73.41
64336;BME280;50672;53.362;-6.240;2023-01-28T01:01:15;103324.34;;;4.44;73.24
64336;BME280;50672;53.362;-6.240;2023-01-28T01:03:43;103319.09;;;4.41;73.27
64336;BME280;50672;53.362;-6.240;2023-01-28T01:06:12;103327.41;;;4.36;73.21
64336;BME280;50672;53.362;-6.240;2023-01-28T01:08:40;103325.78;;;4.32;73.34
64336;BME280;50672;53.362;-6.240;2023-01-28T01:11:10;103324.94;;;4.32;73.28
64336;BME280;50672;53.362;-6.240;2023-01-28T01:13:37;103321.47;;;4.28;73.19
64336;BME280;50672;53.362;-6.240;2023-01-28T01:16:07;103323.38;;;4.26;73.38
64336;BME280;50672;53.362;-6.240;2023-01-28T01:18:34;103309.09;;;4.24;73.50
64336;BME280;50672;53.362;-6.240;2023-01-28T01:21:02;103309.91;;;4.26;73.48
64336;BME280;50672;53.362;-6.240;2023-01-28T01:23:32;103307.94;;;4.30;73.48
64336;BME280;50672;53.362;-6.240;2023-01-28T01:25:59;103312.22;;;4.34;73.52
64336;BME280;50672;53.362;-6.240;2023-01-28T01:28:26;103295.78;;;4.40;73.63
64336;BME280;50672;53.362;-6.240;2023-01-28T01:31:06;103293.72;;;4.45;73.80
64336;BME280;50672;53.362;-6.240;2023-01-28T01:33:33;103295.25;;;4.51;73.67
64336;BME280;50672;53.362;-6.240;2023-01-28T01:36:01;103286.06;;;4.55;73.72
64336;BME280;50672;53.362;-6.240;2023-01-28T01:38:28;103300.53;;;4.54;73.81
64336;BME280;50672;53.362;-6.240;2023-01-28T01:40:59;103290.81;;;4.50;73.88
64336;BME280;50672;53.362;-6.240;2023-01-28T01:46:43;103301.63;;;4.50;73.98
64336;BME280;50672;53.362;-6.240;2023-01-28T01:49:20;103302.31;;;4.53;74.19
64336;BME280;50672;53.362;-6.240;2023-01-28T01:51:52;103298.53;;;4.57;74.19
64336;BME280;50672;53.362;-6.240;2023-01-28T01:54:22;103302.69;;;4.65;74.61
64336;BME280;50672;53.362;-6.240;2023-01-28T01:56:51;103296.19;;;4.69;74.35
64336;BME280;50672;53.362;-6.240;2023-01-28T01:59:22;103291.53;;;4.72;74.45
64336;BME280;50672;53.362;-6.240;2023-01-28T02:01:51;103297.69;;;4.76;74.49
64336;BME280;50672;53.362;-6.240;2023-01-28T02:04:26;103301.09;;;4.79;74.52
64336;BME280;50672;53.362;-6.240;2023-01-28T02:06:56;103298.16;;;4.84;74.74
64336;BME280;50672;53.362;-6.240;2023-01-28T02:09:32;103310.41;;;4.91;74.78
64336;BME280;50672;53.362;-6.240;2023-01-28T02:12:11;103314.84;;;4.92;75.00
64336;BME280;50672;53.362;-6.240;2023-01-28T02:14:48;103320.19;;;4.94;74.92
64336;BME280;50672;53.362;-6.240;2023-01-28T02:17:17;103327.31;;;4.95;75.11
64336;BME280;50672;53.362;-6.240;2023-01-28T02:19:58;103323.59;;;4.97;75.36
64336;BME280;50672;53.362;-6.240;2023-01-28T02:30:35;103337.44;;;5.09;76.15
64336;BME280;50672;53.362;-6.240;2023-01-28T02:33:10;103342.75;;;5.10;76.46
64336;BME280;50672;53.362;-6.240;2023-01-28T02:35:47;103347.22;;;5.11;76.64
64336;BME280;50672;53.362;-6.240;2023-01-28T02:38:18;103354.44;;;5.11;76.92
64336;BME280;50672;53.362;-6.240;2023-01-28T02:40:53;103352.84;;;5.07;77.19
64336;BME280;50672;53.362;-6.240;2023-01-28T02:43:41;103355.63;;;5.05;77.66
64336;BME280;50672;53.362;-6.240;2023-01-28T02:46:16;103358.53;;;5.01;77.91
64336;BME280;50672;53.362;-6.240;2023-01-28T02:49:07;103348.91;;;4.95;78.41
64336;BME280;50672;53.362;-6.240;2023-01-28T02:54:40;103325.00;;;4.87;79.08
64336;BME280;50672;53.362;-6.240;2023-01-28T03:02:45;103311.09;;;4.77;80.21
64336;BME280;50672;53.362;-6.240;2023-01-28T03:05:27;103300.38;;;4.76;80.52
64336;BME280;50672;53.362;-6.240;2023-01-28T03:07:56;103308.50;;;4.74;80.90
64336;BME280;50672;53.362;-6.240;2023-01-28T03:10:25;103308.50;;;4.74;81.37
64336;BME280;50672;53.362;-6.240;2023-01-28T03:12:55;103308.59;;;4.73;81.56
64336;BME280;50672;53.362;-6.240;2023-01-28T03:15:45;103297.88;;;4.71;81.91
64336;BME280;50672;53.362;-6.240;2023-01-28T03:18:39;103288.06;;;4.70;82.30
64336;BME280;50672;53.362;-6.240;2023-01-28T03:21:34;103280.97;;;4.68;82.55
64336;BME280;50672;53.362;-6.240;2023-01-28T03:24:23;103286.44;;;4.66;82.92
64336;BME280;50672;53.362;-6.240;2023-01-28T03:27:18;103282.88;;;4.66;83.15
64336;BME280;50672;53.362;-6.240;2023-01-28T03:30:18;103282.72;;;4.69;83.32
64336;BME280;50672;53.362;-6.240;2023-01-28T03:33:06;103296.16;;;4.70;83.58
64336;BME280;50672;53.362;-6.240;2023-01-28T03:35:52;103304.25;;;4.70;83.72
64336;BME280;50672;53.362;-6.240;2023-01-28T03:38:40;103315.09;;;4.69;84.11
64336;BME280;50672;53.362;-6.240;2023-01-28T03:41:20;103325.00;;;4.68;84.16
64336;BME280;50672;53.362;-6.240;2023-01-28T03:43:48;103313.44;;;4.66;84.43
64336;BME280;50672;53.362;-6.240;2023-01-28T03:46:15;103312.47;;;4.67;84.48
64336;BME280;50672;53.362;-6.240;2023-01-28T03:48:44;103308.81;;;4.68;84.61
64336;BME280;50672;53.362;-6.240;2023-01-28T03:51:11;103293.44;;;4.70;84.65
64336;BME280;50672;53.362;-6.240;2023-01-28T03:53:38;103294.25;;;4.72;84.77
64336;BME280;50672;53.362;-6.240;2023-01-28T03:56:06;103295.03;;;4.74;84.88
64336;BME280;50672;53.362;-6.240;2023-01-28T03:58:33;103300.28;;;4.77;85.10
64336;BME280;50672;53.362;-6.240;2023-01-28T04:01:19;103295.69;;;4.79;85.17
64336;BME280;50672;53.362;-6.240;2023-01-28T04:03:46;103293.94;;;4.78;85.23
64336;BME280;50672;53.362;-6.240;2023-01-28T04:06:13;103303.78;;;4.79;85.34
64336;BME280;50672;53.362;-6.240;2023-01-28T04:08:39;103302.03;;;4.78;85.41
64336;BME280;50672;53.362;-6.240;2023-01-28T04:11:11;103305.63;;;4.79;85.54
64336;BME280;50672;53.362;-6.240;2023-01-28T04:13:42;103309.09;;;4.81;85.64
64336;BME280;50672;53.362;-6.240;2023-01-28T04:16:10;103293.88;;;4.80;85.89
64336;BME280;50672;53.362;-6.240;2023-01-28T04:18:38;103290.38;;;4.78;85.71
64336;BME280;50672;53.362;-6.240;2023-01-28T04:21:05;103292.19;;;4.77;85.81
64336;BME280;50672;53.362;-6.240;2023-01-28T04:23:31;103303.00;;;4.77;85.97
64336;BME280;50672;53.362;-6.240;2023-01-28T04:25:58;103299.31;;;4.78;85.93
64336;BME280;50672;53.362;-6.240;2023-01-28T04:28:25;103285.78;;;4.80;86.03
64336;BME280;50672;53.362;-6.240;2023-01-28T04:30:52;103276.00;;;4.77;86.14
64336;BME280;50672;53.362;-6.240;2023-01-28T04:33:19;103282.50;;;4.73;86.21
64336;BME280;50672;53.362;-6.240;2023-01-28T04:35:46;103287.25;;;4.68;86.30
64336;BME280;50672;53.362;-6.240;2023-01-28T04:38:12;103289.16;;;4.66;86.44
64336;BME280;50672;53.362;-6.240;2023-01-28T04:40:39;103286.56;;;4.63;86.49
64336;BME280;50672;53.362;-6.240;2023-01-28T04:43:07;103290.31;;;4.60;86.77
64336;BME280;50672;53.362;-6.240;2023-01-28T04:45:34;103287.75;;;4.57;86.65
64336;BME280;50672;53.362;-6.240;2023-01-28T04:48:01;103292.19;;;4.58;86.84
64336;BME280;50672;53.362;-6.240;2023-01-28T04:50:27;103294.97;;;4.57;86.97
64336;BME280;50672;53.362;-6.240;2023-01-28T04:52:54;103303.16;;;4.55;87.16
64336;BME280;50672;53.362;-6.240;2023-01-28T04:55:21;103313.84;;;4.57;87.25
64336;BME280;50672;53.362;-6.240;2023-01-28T04:57:48;103308.38;;;4.58;87.25
64336;BME280;50672;53.362;-6.240;2023-01-28T05:00:15;103308.38;;;4.58;87.33
64336;BME280;50672;53.362;-6.240;2023-01-28T05:02:42;103306.63;;;4.57;87.38
64336;BME280;50672;53.362;-6.240;2023-01-28T05:05:09;103306.63;;;4.57;87.50
64336;BME280;50672;53.362;-6.240;2023-01-28T05:07:36;103309.41;;;4.56;87.62
64336;BME280;50672;53.362;-6.240;2023-01-28T05:10:03;103314.09;;;4.52;87.74
64336;BME280;50672;53.362;-6.240;2023-01-28T05:12:30;103309.72;;;4.50;87.79
64336;BME280;50672;53.362;-6.240;2023-01-28T05:14:59;103316.81;;;4.51;87.93
64336;BME280;50672;53.362;-6.240;2023-01-28T05:17:27;103322.97;;;4.54;87.89
64336;BME280;50672;53.362;-6.240;2023-01-28T05:19:54;103322.75;;;4.59;88.05
64336;BME280;50672;53.362;-6.240;2023-01-28T05:22:21;103332.44;;;4.63;88.27
64336;BME280;50672;53.362;-6.240;2023-01-28T05:24:48;103326.78;;;4.69;88.32
64336;BME280;50672;53.362;-6.240;2023-01-28T05:27:15;103330.09;;;4.74;88.37
64336;BME280;50672;53.362;-6.240;2023-01-28T05:29:42;103328.06;;;4.79;88.47
64336;BME280;50672;53.362;-6.240;2023-01-28T05:32:09;103337.59;;;4.87;88.53
64336;BME280;50672;53.362;-6.240;2023-01-28T05:34:35;103340.88;;;4.93;88.51
64336;BME280;50672;53.362;-6.240;2023-01-28T05:37:02;103333.53;;;4.97;88.54
64336;BME280;50672;53.362;-6.240;2023-01-28T05:39:29;103327.91;;;5.02;88.60
64336;BME280;50672;53.362;-6.240;2023-01-28T05:41:57;103338.63;;;5.03;88.69
64336;BME280;50672;53.362;-6.240;2023-01-28T05:44:23;103343.94;;;5.05;88.57
64336;BME280;50672;53.362;-6.240;2023-01-28T05:46:51;103334.91;;;5.06;88.85
64336;BME280;50672;53.362;-6.240;2023-01-28T05:49:18;103330.28;;;5.08;88.83
64336;BME280;50672;53.362;-6.240;2023-01-28T05:51:44;103320.28;;;5.10;88.85
64336;BME280;50672;53.362;-6.240;2023-01-28T05:54:11;103324.84;;;5.09;88.87
64336;BME280;50672;53.362;-6.240;2023-01-28T05:56:38;103315.91;;;5.07;88.76
64336;BME280;50672;53.362;-6.240;2023-01-28T05:59:05;103311.63;;;5.03;88.89
64336;BME280;50672;53.362;-6.240;2023-01-28T06:01:32;103313.81;;;4.95;88.76
64336;BME280;50672;53.362;-6.240;2023-01-28T06:03:59;103314.22;;;4.87;88.91
64336;BME280;50672;53.362;-6.240;2023-01-28T06:06:26;103310.84;;;4.82;89.04
64336;BME280;50672;53.362;-6.240;2023-01-28T06:08:52;103310.28;;;4.75;88.91
64336;BME280;50672;53.362;-6.240;2023-01-28T06:11:19;103321.22;;;4.72;89.14
64336;BME280;50672;53.362;-6.240;2023-01-28T06:13:46;103321.22;;;4.72;89.17
64336;BME280;50672;53.362;-6.240;2023-01-28T06:16:13;103324.94;;;4.70;89.34
64336;BME280;50672;53.362;-6.240;2023-01-28T06:18:40;103318.75;;;4.68;89.33
64336;BME280;50672;53.362;-6.240;2023-01-28T06:21:07;103314.16;;;4.70;89.56
64336;BME280;50672;53.362;-6.240;2023-01-28T06:23:34;103308.66;;;4.71;89.62
64336;BME280;50672;53.362;-6.240;2023-01-28T06:26:01;103302.34;;;4.72;89.87
64336;BME280;50672;53.362;-6.240;2023-01-28T06:28:28;103304.94;;;4.74;89.85
64336;BME280;50672;53.362;-6.240;2023-01-28T06:30:55;103306.94;;;4.70;90.07
64336;BME280;50672;53.362;-6.240;2023-01-28T06:33:22;103307.16;;;4.66;89.88
64336;BME280;50672;53.362;-6.240;2023-01-28T06:35:49;103306.50;;;4.60;90.04
64336;BME280;50672;53.362;-6.240;2023-01-28T06:38:16;103303.94;;;4.57;90.21
64336;BME280;50672;53.362;-6.240;2023-01-28T06:40:43;103300.53;;;4.54;90.49
64336;BME280;50672;53.362;-6.240;2023-01-28T06:43:10;103305.09;;;4.52;90.32
64336;BME280;50672;53.362;-6.240;2023-01-28T06:45:37;103307.66;;;4.55;90.69
64336;BME280;50672;53.362;-6.240;2023-01-28T06:48:04;103304.75;;;4.59;90.63
64336;BME280;50672;53.362;-6.240;2023-01-28T06:50:34;103316.13;;;4.66;90.77
64336;BME280;50672;53.362;-6.240;2023-01-28T06:53:01;103314.88;;;4.73;90.81
64336;BME280;50672;53.362;-6.240;2023-01-28T06:55:27;103318.16;;;4.80;90.96
64336;BME280;50672;53.362;-6.240;2023-01-28T06:57:54;103313.25;;;4.88;90.98
64336;BME280;50672;53.362;-6.240;2023-01-28T07:00:21;103312.16;;;4.92;91.30
64336;BME280;50672;53.362;-6.240;2023-01-28T07:02:48;103302.94;;;4.96;91.12
64336;BME280;50672;53.362;-6.240;2023-01-28T07:05:14;103300.97;;;5.00;91.08
64336;BME280;50672;53.362;-6.240;2023-01-28T07:07:41;103307.97;;;5.04;91.11
64336;BME280;50672;53.362;-6.240;2023-01-28T07:10:09;103299.88;;;5.04;91.15
64336;BME280;50672;53.362;-6.240;2023-01-28T07:12:36;103299.88;;;5.04;91.21
64336;BME280;50672;53.362;-6.240;2023-01-28T07:15:03;103300.03;;;5.01;91.32
64336;BME280;50672;53.362;-6.240;2023-01-28T07:17:30;103294.72;;;5.00;91.43
64336;BME280;50672;53.362;-6.240;2023-01-28T07:19:56;103297.56;;;4.96;91.35
64336;BME280;50672;53.362;-6.240;2023-01-28T07:22:23;103294.84;;;4.96;91.32
64336;BME280;50672;53.362;-6.240;2023-01-28T07:24:50;103292.06;;;4.98;91.56
64336;BME280;50672;53.362;-6.240;2023-01-28T07:27:17;103296.53;;;4.99;91.33
64336;BME280;50672;53.362;-6.240;2023-01-28T07:29:44;103295.59;;;5.00;91.54
64336;BME280;50672;53.362;-6.240;2023-01-28T07:32:11;103296.38;;;5.02;91.60
64336;BME280;50672;53.362;-6.240;2023-01-28T07:34:37;103302.59;;;5.04;91.56
64336;BME280;50672;53.362;-6.240;2023-01-28T07:37:08;103298.88;;;5.07;91.75
64336;BME280;50672;53.362;-6.240;2023-01-28T07:39:34;103301.41;;;5.10;91.86
64336;BME280;50672;53.362;-6.240;2023-01-28T07:42:01;103296.09;;;5.08;91.96
64336;BME280;50672;53.362;-6.240;2023-01-28T07:44:28;103289.09;;;5.04;91.87
64336;BME280;50672;53.362;-6.240;2023-01-28T07:46:55;103290.09;;;5.02;91.83
64336;BME280;50672;53.362;-6.240;2023-01-28T07:49:22;103285.72;;;4.99;92.02
64336;BME280;50672;53.362;-6.240;2023-01-28T07:51:48;103289.53;;;4.95;92.01
64336;BME280;50672;53.362;-6.240;2023-01-28T07:54:16;103282.53;;;4.91;91.99
64336;BME280;50672;53.362;-6.240;2023-01-28T07:56:43;103297.94;;;4.89;92.19
64336;BME280;50672;53.362;-6.240;2023-01-28T07:59:10;103305.16;;;4.88;92.13
64336;BME280;50672;53.362;-6.240;2023-01-28T08:01:36;103299.91;;;4.85;92.30
64336;BME280;50672;53.362;-6.240;2023-01-28T08:04:03;103303.63;;;4.83;92.44
64336;BME280;50672;53.362;-6.240;2023-01-28T08:06:30;103307.38;;;4.80;92.38
64336;BME280;50672;53.362;-6.240;2023-01-28T08:09:06;103316.34;;;4.81;92.50
64336;BME280;50672;53.362;-6.240;2023-01-28T08:11:36;103318.88;;;4.84;92.66
64336;BME280;50672;53.362;-6.240;2023-01-28T08:14:04;103319.53;;;4.89;92.57
64336;BME280;50672;53.362;-6.240;2023-01-28T08:16:30;103315.66;;;4.94;92.70
64336;BME280;50672;53.362;-6.240;2023-01-28T08:18:57;103331.63;;;4.99;92.70
64336;BME280;50672;53.362;-6.240;2023-01-28T08:21:24;103329.66;;;5.03;92.61
64336;BME280;50672;53.362;-6.240;2023-01-28T08:23:51;103333.06;;;5.06;92.71
64336;BME280;50672;53.362;-6.240;2023-01-28T08:26:18;103323.06;;;5.08;92.86
64336;BME280;50672;53.362;-6.240;2023-01-28T08:28:44;103321.16;;;5.10;92.91
64336;BME280;50672;53.362;-6.240;2023-01-28T08:31:11;103330.84;;;5.14;93.06
64336;BME280;50672;53.362;-6.240;2023-01-28T08:33:38;103328.06;;;5.16;92.83
64336;BME280;50672;53.362;-6.240;2023-01-28T08:36:05;103337.00;;;5.18;92.71
64336;BME280;50672;53.362;-6.240;2023-01-28T08:38:32;103345.97;;;5.19;92.84
64336;BME280;50672;53.362;-6.240;2023-01-28T08:40:59;103337.78;;;5.20;93.02
64336;BME280;50672;53.362;-6.240;2023-01-28T08:43:26;103342.16;;;5.23;92.79
64336;BME280;50672;53.362;-6.240;2023-01-28T08:45:52;103342.88;;;5.26;93.02
64336;BME280;50672;53.362;-6.240;2023-01-28T08:48:19;103353.38;;;5.33;93.12
64336;BME280;50672;53.362;-6.240;2023-01-28T08:50:47;103351.41;;;5.36;93.12
64336;BME280;50672;53.362;-6.240;2023-01-28T08:53:18;103338.69;;;5.38;93.01
64336;BME280;50672;53.362;-6.240;2023-01-28T08:55:46;103347.53;;;5.42;93.12
64336;BME280;50672;53.362;-6.240;2023-01-28T08:58:15;103350.13;;;5.43;93.07
64336;BME280;50672;53.362;-6.240;2023-01-28T09:00:43;103348.22;;;5.45;93.01
64336;BME280;50672;53.362;-6.240;2023-01-28T09:03:10;103346.25;;;5.49;92.90
64336;BME280;50672;53.362;-6.240;2023-01-28T09:05:39;103346.97;;;5.53;93.15
64336;BME280;50672;53.362;-6.240;2023-01-28T09:08:08;103345.88;;;5.57;92.98
64336;BME280;50672;53.362;-6.240;2023-01-28T09:10:36;103352.84;;;5.61;92.86
64336;BME280;50672;53.362;-6.240;2023-01-28T09:13:09;103351.81;;;5.63;92.86
64336;BME280;50672;53.362;-6.240;2023-01-28T09:15:36;103354.22;;;5.70;92.74
64336;BME280;50672;53.362;-6.240;2023-01-28T09:18:04;103351.09;;;5.77;92.68
64336;BME280;50672;53.362;-6.240;2023-01-28T09:20:32;103353.41;;;5.85;93.07
64336;BME280;50672;53.362;-6.240;2023-01-28T09:23:00;103354.84;;;5.92;92.81
64336;BME280;50672;53.362;-6.240;2023-01-28T09:25:27;103358.13;;;5.99;92.76
64336;BME280;50672;53.362;-6.240;2023-01-28T09:27:54;103344.34;;;6.04;92.60
64336;BME280;50672;53.362;-6.240;2023-01-28T09:30:21;103346.81;;;6.08;92.83
64336;BME280;50672;53.362;-6.240;2023-01-28T09:32:52;103351.09;;;6.12;92.63
64336;BME280;50672;53.362;-6.240;2023-01-28T09:35:19;103342.84;;;6.15;92.77
64336;BME280;50672;53.362;-6.240;2023-01-28T09:37:47;103346.16;;;6.21;92.65
64336;BME280;50672;53.362;-6.240;2023-01-28T09:40:19;103352.13;;;6.27;92.31
64336;BME280;50672;53.362;-6.240;2023-01-28T09:42:50;103349.00;;;6.35;92.43
64336;BME280;50672;53.362;-6.240;2023-01-28T09:45:48;103353.22;;;6.41;92.13
64336;BME280;50672;53.362;-6.240;2023-01-28T09:48:19;103357.41;;;6.46;92.02
64336;BME280;50672;53.362;-6.240;2023-01-28T09:50:52;103361.69;;;6.50;91.94
64336;BME280;50672;53.362;-6.240;2023-01-28T09:53:31;103359.66;;;6.54;92.09
64336;BME280;50672;53.362;-6.240;2023-01-28T09:56:25;103354.97;;;6.58;91.84
64336;BME280;50672;53.362;-6.240;2023-01-28T09:58:56;103358.47;;;6.60;91.70
64336;BME280;50672;53.362;-6.240;2023-01-28T10:01:42;103370.84;;;6.64;91.58
64336;BME280;50672;53.362;-6.240;2023-01-28T10:09:49;103370.09;;;6.78;91.47
64336;BME280;50672;53.362;-6.240;2023-01-28T10:15:29;103373.25;;;6.86;91.20
64336;BME280;50672;53.362;-6.240;2023-01-28T10:18:03;103379.63;;;6.85;91.25
64336;BME280;50672;53.362;-6.240;2023-01-28T10:20:48;103388.53;;;6.87;91.18
64336;BME280;50672;53.362;-6.240;2023-01-28T10:25:58;103384.69;;;6.91;91.26
64336;BME280;50672;53.362;-6.240;2023-01-28T10:28:28;103389.06;;;6.94;91.17
64336;BME280;50672;53.362;-6.240;2023-01-28T10:30:55;103386.28;;;6.95;91.32
64336;BME280;50672;53.362;-6.240;2023-01-28T10:33:34;103387.94;;;6.98;91.39
64336;BME280;50672;53.362;-6.240;2023-01-28T10:36:03;103391.34;;;7.01;91.47
64336;BME280;50672;53.362;-6.240;2023-01-28T10:38:30;103395.63;;;7.06;91.24
64336;BME280;50672;53.362;-6.240;2023-01-28T10:41:00;103400.78;;;7.10;91.34
64336;BME280;50672;53.362;-6.240;2023-01-28T10:43:36;103407.75;;;7.14;91.38
64336;BME280;50672;53.362;-6.240;2023-01-28T10:46:17;103392.66;;;7.26;91.22
64336;BME280;50672;53.362;-6.240;2023-01-28T10:48:53;103396.06;;;7.30;91.41
64336;BME280;50672;53.362;-6.240;2023-01-28T10:51:36;103393.28;;;7.31;91.35
64336;BME280;50672;53.362;-6.240;2023-01-28T10:54:20;103387.75;;;7.33;91.49
64336;BME280;50672;53.362;-6.240;2023-01-28T10:56:50;103393.19;;;7.33;91.14
64336;BME280;50672;53.362;-6.240;2023-01-28T10:59:22;103393.94;;;7.35;91.10
64336;BME280;50672;53.362;-6.240;2023-01-28T11:01:54;103390.09;;;7.39;91.11
64336;BME280;50672;53.362;-6.240;2023-01-28T11:04:33;103376.31;;;7.44;90.94
64336;BME280;50672;53.362;-6.240;2023-01-28T11:07:18;103372.06;;;7.54;91.08
64336;BME280;50672;53.362;-6.240;2023-01-28T11:09:48;103376.06;;;7.63;90.70
64336;BME280;50672;53.362;-6.240;2023-01-28T11:12:21;103367.19;;;7.75;90.96
64336;BME280;50672;53.362;-6.240;2023-01-28T11:17:26;103357.19;;;8.06;90.61
64336;BME280;50672;53.362;-6.240;2023-01-28T11:19:57;103353.31;;;8.10;90.68
64336;BME280;50672;53.362;-6.240;2023-01-28T11:22:34;103339.84;;;8.09;90.57
64336;BME280;50672;53.362;-6.240;2023-01-28T11:25:06;103334.63;;;8.06;90.19
64336;BME280;50672;53.362;-6.240;2023-01-28T11:27:46;103337.44;;;8.04;89.99
64336;BME280;50672;53.362;-6.240;2023-01-28T11:33:37;103327.75;;;8.29;90.08
64336;BME280;50672;53.362;-6.240;2023-01-28T11:35:57;103320.41;;;8.45;89.64
64336;BME280;50672;53.362;-6.240;2023-01-28T11:38:29;103325.56;;;8.50;89.78
64336;BME280;50672;53.362;-6.240;2023-01-28T11:40:57;103327.28;;;8.51;89.21
64336;BME280;50672;53.362;-6.240;2023-01-28T11:43:29;103335.06;;;8.57;89.41
64336;BME280;50672;53.362;-6.240;2023-01-28T11:46:30;103330.19;;;8.62;89.15
64336;BME280;50672;53.362;-6.240;2023-01-28T11:49:24;103334.53;;;8.65;89.18
64336;BME280;50672;53.362;-6.240;2023-01-28T11:55:15;103335.06;;;8.57;88.17
64336;BME280;50672;53.362;-6.240;2023-01-28T12:05:52;103324.06;;;8.15;88.04
64336;BME280;50672;53.362;-6.240;2023-01-28T12:08:54;103326.38;;;8.07;87.77
64336;BME280;50672;53.362;-6.240;2023-01-28T12:11:32;103321.53;;;7.98;87.74
64336;BME280;50672;53.362;-6.240;2023-01-28T12:14:36;103320.06;;;7.92;88.00
64336;BME280;50672;53.362;-6.240;2023-01-28T12:26:03;103314.28;;;8.13;88.00
64336;BME280;50672;53.362;-6.240;2023-01-28T12:29:06;103314.59;;;8.08;88.26
64336;BME280;50672;53.362;-6.240;2023-01-28T12:31:50;103311.38;;;8.01;87.99
64336;BME280;50672;53.362;-6.240;2023-01-28T12:37:31;103288.50;;;7.91;88.19
64336;BME280;50672;53.362;-6.240;2023-01-28T12:40:12;103284.81;;;7.92;88.50
64336;BME280;50672;53.362;-6.240;2023-01-28T12:42:45;103280.28;;;7.93;88.72
64336;BME280;50672;53.362;-6.240;2023-01-28T12:45:25;103278.44;;;7.93;88.81
64336;BME280;50672;53.362;-6.240;2023-01-28T12:47:57;103281.63;;;8.00;88.90
64336;BME280;50672;53.362;-6.240;2023-01-28T12:50:27;103275.16;;;8.02;88.77
64336;BME280;50672;53.362;-6.240;2023-01-28T12:53:20;103270.97;;;8.11;89.04
64336;BME280;50672;53.362;-6.240;2023-01-28T12:55:57;103268.56;;;8.07;89.02
64336;BME280;50672;53.362;-6.240;2023-01-28T12:58:39;103263.91;;;8.09;88.73
64336;BME280;50672;53.362;-6.240;2023-01-28T13:01:14;103260.13;;;8.11;88.84
64336;BME280;50672;53.362;-6.240;2023-01-28T13:03:57;103256.81;;;8.06;88.72
64336;BME280;50672;53.362;-6.240;2023-01-28T13:06:43;103254.31;;;8.03;88.95
64336;BME280;50672;53.362;-6.240;2023-01-28T13:09:18;103257.78;;;8.05;89.09
64336;BME280;50672;53.362;-6.240;2023-01-28T13:11:47;103263.22;;;8.05;89.13
64336;BME280;50672;53.362;-6.240;2023-01-28T13:14:29;103248.13;;;8.01;88.96
64336;BME280;50672;53.362;-6.240;2023-01-28T13:17:24;103245.13;;;7.91;89.04
64336;BME280;50672;53.362;-6.240;2023-01-28T13:19:51;103254.88;;;7.94;88.85
64336;BME280;50672;53.362;-6.240;2023-01-28T13:22:31;103247.84;;;7.91;88.70
64336;BME280;50672;53.362;-6.240;2023-01-28T13:25:23;103249.66;;;7.91;88.84
64336;BME280;50672;53.362;-6.240;2023-01-28T13:28:00;103248.00;;;7.88;88.92
64336;BME280;50672;53.362;-6.240;2023-01-28T13:30:46;103246.28;;;7.87;88.82
64336;BME280;50672;53.362;-6.240;2023-01-28T13:33:31;103242.69;;;7.86;88.82
64336;BME280;50672;53.362;-6.240;2023-01-28T13:36:04;103248.19;;;7.85;88.71
64336;BME280;50672;53.362;-6.240;2023-01-28T13:38:34;103233.78;;;7.84;88.45
64336;BME280;50672;53.362;-6.240;2023-01-28T13:41:01;103237.25;;;7.86;88.74
64336;BME280;50672;53.362;-6.240;2023-01-28T13:46:01;103241.72;;;7.87;88.63
64336;BME280;50672;53.362;-6.240;2023-01-28T13:48:50;103240.06;;;7.85;88.58
64336;BME280;50672;53.362;-6.240;2023-01-28T13:51:24;103229.63;;;7.79;88.25
64336;BME280;50672;53.362;-6.240;2023-01-28T13:54:03;103234.34;;;7.75;88.35
64336;BME280;50672;53.362;-6.240;2023-01-28T13:56:40;103230.19;;;7.69;88.50
64336;BME280;50672;53.362;-6.240;2023-01-28T14:14:33;103199.50;;;7.69;88.29
64336;BME280;50672;53.362;-6.240;2023-01-28T14:19:35;103193.09;;;7.70;88.76
64336;BME280;50672;53.362;-6.240;2023-01-28T14:22:16;103193.78;;;7.74;88.53
64336;BME280;50672;53.362;-6.240;2023-01-28T14:24:44;103191.94;;;7.74;88.48
64336;BME280;50672;53.362;-6.240;2023-01-28T14:32:44;103194.06;;;7.69;88.68
64336;BME280;50672;53.362;-6.240;2023-01-28T14:35:18;103202.13;;;7.70;88.60
64336;BME280;50672;53.362;-6.240;2023-01-28T14:37:45;103200.38;;;7.69;88.48
64336;BME280;50672;53.362;-6.240;2023-01-28T14:40:14;103203.94;;;7.70;88.61